Time;durP1;ratioP1;P1;durP2;ratioP2;P2;SDS_P1;SDS_P2;PMS_P1;PMS_P2;Temp;Humidity;BMP_temperature;BMP_pressure;BME280_temperature;BME280_humidity;BME280_pressure;Samples;Min_cycle;Max_cycle;Signal;HPM_P1;HPM_P2
2021/07/31 00:01:38;;;;;;;16.92;15.23;;;25.40;99.90;;;;;;5074292;28;20135;-69
2021/07/31 00:04:04;;;;;;;15.43;13.80;;;25.30;99.90;;;;;;5092512;28;20379;-70
2021/07/31 00:06:30;;;;;;;17.92;13.85;;;25.30;99.90;;;;;;5074423;28;20497;-71
2021/07/31 00:08:56;;;;;;;16.58;13.88;;;25.20;99.90;;;;;;5074029;28;20115;-70
2021/07/31 00:11:22;;;;;;;14.85;13.30;;;25.30;99.90;;;;;;5092337;28;20103;-70
2021/07/31 00:13:48;;;;;;;15.07;13.70;;;25.30;99.90;;;;;;5092347;28;20111;-70
2021/07/31 00:16:13;;;;;;;19.02;13.90;;;25.20;99.90;;;;;;5074014;28;20027;-70
2021/07/31 00:18:39;;;;;;;19.15;14.07;;;25.40;99.90;;;;;;5073516;28;20097;-71
2021/07/31 00:21:05;;;;;;;13.15;11.85;;;25.50;99.90;;;;;;5073931;28;20028;-71
2021/07/31 00:23:30;;;;;;;16.95;13.48;;;25.50;99.90;;;;;;5092137;28;20035;-70
2021/07/31 00:25:56;;;;;;;18.77;15.10;;;25.40;99.90;;;;;;5091507;28;20099;-71
2021/07/31 00:28:25;;;;;;;13.23;12.23;;;25.30;99.90;;;;;;5091798;28;20070;-70
2021/07/31 00:30:51;;;;;;;15.60;14.07;;;25.30;99.90;;;;;;5091820;28;20466;-70
2021/07/31 00:33:17;;;;;;;18.50;14.43;;;25.40;99.90;;;;;;5092133;28;20115;-69
2021/07/31 00:35:43;;;;;;;15.82;14.40;;;25.40;99.90;;;;;;5092135;28;20103;-71
2021/07/31 00:38:09;;;;;;;18.10;13.45;;;25.30;99.90;;;;;;5091611;28;20020;-71
2021/07/31 00:40:35;;;;;;;15.55;14.10;;;25.50;99.90;;;;;;5073500;28;20035;-71
2021/07/31 00:43:07;;;;;;;20.13;14.90;;;25.50;99.90;;;;;;5073370;28;20036;-71
2021/07/31 00:45:33;;;;;;;14.15;12.60;;;25.50;99.90;;;;;;5074740;28;20024;-70
2021/07/31 00:48:00;;;;;;;14.63;13.25;;;25.70;99.90;;;;;;5073211;28;20016;-70
2021/07/31 00:50:27;;;;;;;15.50;13.10;;;25.80;99.90;;;;;;5073451;28;20061;-70
2021/07/31 00:52:54;;;;;;;19.52;16.15;;;25.80;99.90;;;;;;5089090;28;20039;-70
2021/07/31 00:55:20;;;;;;;15.35;13.73;;;25.70;99.90;;;;;;5091303;28;20504;-70
2021/07/31 00:57:49;;;;;;;14.30;13.10;;;25.70;99.90;;;;;;5073010;28;20028;-70
2021/07/31 01:00:15;;;;;;;20.10;13.82;;;25.50;99.90;;;;;;5091657;28;20530;-70
2021/07/31 01:02:41;;;;;;;15.07;13.45;;;25.40;99.90;;;;;;5072783;28;20028;-69
2021/07/31 01:05:07;;;;;;;16.65;13.73;;;25.40;99.90;;;;;;5073133;28;20060;-69
2021/07/31 01:07:35;;;;;;;13.30;12.10;;;25.40;99.90;;;;;;5091422;28;20047;-69
2021/07/31 01:10:01;;;;;;;14.23;12.88;;;25.60;99.90;;;;;;5091235;28;20035;-71
2021/07/31 01:12:27;;;;;;;16.25;12.90;;;25.70;99.90;;;;;;5091824;28;20032;-69
2021/07/31 01:14:53;;;;;;;16.10;12.02;;;25.80;99.90;;;;;;5091488;28;20035;-68
2021/07/31 01:17:19;;;;;;;20.13;12.30;;;25.80;99.90;;;;;;5091322;28;20097;-69
2021/07/31 01:19:45;;;;;;;16.48;11.70;;;25.90;99.90;;;;;;5072657;28;20067;-70
2021/07/31 01:22:10;;;;;;;15.05;12.13;;;25.80;99.90;;;;;;5090986;28;20470;-70
2021/07/31 01:24:36;;;;;;;19.65;14.02;;;25.90;99.90;;;;;;5073227;28;20028;-71
2021/07/31 01:27:03;;;;;;;22.33;13.85;;;26.00;99.90;;;;;;5091459;28;20025;-70
2021/07/31 01:29:29;;;;;;;13.75;12.18;;;26.10;99.90;;;;;;5072635;28;20107;-71
2021/07/31 01:31:54;;;;;;;17.33;12.85;;;26.10;99.90;;;;;;5072866;28;20187;-70
2021/07/31 01:34:20;;;;;;;15.65;11.77;;;26.10;99.90;;;;;;5091459;28;20028;-71
2021/07/31 01:36:46;;;;;;;12.98;11.73;;;26.10;99.90;;;;;;5072349;28;20027;-71
2021/07/31 01:39:11;;;;;;;13.95;11.75;;;26.00;99.90;;;;;;5072916;28;20020;-71
2021/07/31 01:41:37;;;;;;;17.77;12.50;;;26.00;99.90;;;;;;5090906;28;20028;-70
2021/07/31 01:44:03;;;;;;;12.77;11.50;;;25.90;99.90;;;;;;5090787;28;20524;-72
2021/07/31 01:46:29;;;;;;;12.98;11.75;;;26.10;99.90;;;;;;5072536;28;20386;-70
2021/07/31 01:48:55;;;;;;;13.88;12.45;;;26.00;99.90;;;;;;5072558;28;20024;-69
2021/07/31 01:51:20;;;;;;;12.27;10.95;;;26.10;99.90;;;;;;5090678;28;20020;-69
2021/07/31 01:53:46;;;;;;;15.57;12.15;;;26.00;99.90;;;;;;5072395;28;20054;-69
2021/07/31 01:56:12;;;;;;;12.00;10.90;;;26.00;99.90;;;;;;5090400;28;20020;-69
2021/07/31 01:58:38;;;;;;;15.75;12.52;;;26.00;99.90;;;;;;5072009;28;20509;-70
2021/07/31 02:01:04;;;;;;;14.80;11.10;;;26.00;99.90;;;;;;5090378;28;20359;-70
2021/07/31 02:03:30;;;;;;;13.57;12.23;;;26.00;99.90;;;;;;5090534;28;20035;-69
2021/07/31 02:05:56;;;;;;;14.10;11.10;;;25.90;99.90;;;;;;5090334;28;20028;-70
2021/07/31 02:08:22;;;;;;;11.80;10.55;;;25.70;99.90;;;;;;5072055;28;20020;-69
2021/07/31 02:10:48;;;;;;;16.42;11.27;;;25.80;99.90;;;;;;5090243;28;20047;-69
2021/07/31 02:13:14;;;;;;;19.65;11.05;;;25.70;99.90;;;;;;5090343;28;20032;-69
2021/07/31 02:15:44;;;;;;;15.77;11.50;;;25.60;99.90;;;;;;5072103;28;20030;-69
2021/07/31 02:18:11;;;;;;;12.70;11.48;;;25.60;99.90;;;;;;5090511;28;20371;-69
2021/07/31 02:20:37;;;;;;;11.63;10.40;;;25.50;99.90;;;;;;5072140;28;20036;-70
2021/07/31 02:23:03;;;;;;;13.70;11.85;;;25.50;99.90;;;;;;5072066;28;20115;-69
2021/07/31 02:25:28;;;;;;;12.48;11.27;;;25.50;99.90;;;;;;5072101;28;20070;-68
2021/07/31 02:27:54;;;;;;;12.27;11.07;;;25.40;99.90;;;;;;5071843;28;20048;-70
2021/07/31 02:30:20;;;;;;;12.23;10.40;;;25.40;99.90;;;;;;5071951;28;20121;-69
2021/07/31 02:32:46;;;;;;;13.25;11.05;;;25.50;99.90;;;;;;5072004;28;20316;-69
2021/07/31 02:35:13;;;;;;;14.35;12.85;;;25.40;99.90;;;;;;5090208;28;20514;-69
2021/07/31 02:37:39;;;;;;;12.15;10.52;;;25.50;99.90;;;;;;5071864;28;20028;-70
2021/07/31 02:40:06;;;;;;;15.05;10.65;;;25.40;99.90;;;;;;5090099;28;20283;-69
2021/07/31 02:42:32;;;;;;;15.38;10.60;;;25.30;99.90;;;;;;5071550;28;20024;-69
2021/07/31 02:45:01;;;;;;;12.05;10.98;;;25.40;99.90;;;;;;5072151;28;20427;-69
2021/07/31 02:47:27;;;;;;;13.93;11.77;;;25.40;99.90;;;;;;5090109;28;20366;-70
2021/07/31 02:49:53;;;;;;;10.68;9.60;;;25.30;99.90;;;;;;5093915;28;20081;-70
2021/07/31 02:52:18;;;;;;;12.88;11.63;;;25.30;99.90;;;;;;5094121;28;20016;-69
2021/07/31 02:54:44;;;;;;;12.57;9.93;;;25.30;99.90;;;;;;5091189;28;20124;-70
2021/07/31 02:57:10;;;;;;;13.27;11.07;;;25.30;99.90;;;;;;5075810;28;20028;-70
2021/07/31 02:59:36;;;;;;;14.13;10.80;;;25.30;99.90;;;;;;5094572;28;20080;-70
2021/07/31 03:02:02;;;;;;;11.88;10.85;;;25.30;99.90;;;;;;5096159;28;20074;-70
2021/07/31 03:04:27;;;;;;;11.55;10.38;;;25.30;99.90;;;;;;5097145;28;20549;-70
2021/07/31 03:06:53;;;;;;;12.35;10.60;;;25.30;99.90;;;;;;5095166;28;20027;-69
2021/07/31 03:09:19;;;;;;;13.13;10.65;;;25.30;99.90;;;;;;5075627;28;20022;-69
2021/07/31 03:11:45;;;;;;;11.35;10.18;;;25.30;99.90;;;;;;5094054;28;20028;-69
2021/07/31 03:14:11;;;;;;;10.57;9.57;;;25.30;99.90;;;;;;5076057;28;20462;-69
2021/07/31 03:16:37;;;;;;;12.50;10.38;;;25.30;99.90;;;;;;5075937;28;20028;-70
2021/07/31 03:19:03;;;;;;;11.70;10.50;;;25.40;99.90;;;;;;5093595;28;20421;-70
2021/07/31 03:21:29;;;;;;;10.57;9.60;;;25.40;99.90;;;;;;5075659;28;20115;-70
2021/07/31 03:23:54;;;;;;;10.68;9.40;;;25.40;99.90;;;;;;5075313;28;20504;-70
2021/07/31 03:26:20;;;;;;;13.77;9.52;;;25.40;99.90;;;;;;5093603;28;20020;-70
2021/07/31 03:28:46;;;;;;;11.10;10.07;;;25.50;99.90;;;;;;5093441;28;20050;-69
2021/07/31 03:31:23;;;;;;;14.52;10.82;;;25.50;99.90;;;;;;5075103;28;20035;-69
2021/07/31 03:33:50;;;;;;;16.77;11.27;;;25.50;99.90;;;;;;5093356;28;20371;-69
2021/07/31 03:36:16;;;;;;;11.18;10.07;;;25.40;99.90;;;;;;5075109;28;20028;-69
2021/07/31 03:38:42;;;;;;;11.55;9.63;;;25.40;99.90;;;;;;5093554;28;20486;-69
2021/07/31 03:41:08;;;;;;;15.23;11.27;;;25.30;99.90;;;;;;5093288;28;20035;-70
2021/07/31 03:43:34;;;;;;;12.50;10.30;;;25.30;99.90;;;;;;5074733;28;20481;-71
2021/07/31 03:46:00;;;;;;;14.23;10.27;;;25.30;99.90;;;;;;5074880;28;20020;-70
2021/07/31 03:48:25;;;;;;;13.50;11.27;;;25.30;99.90;;;;;;5092862;28;20047;-70
2021/07/31 03:50:51;;;;;;;11.18;10.18;;;25.30;99.90;;;;;;5092850;28;20020;-68
2021/07/31 03:53:17;;;;;;;11.13;9.65;;;25.30;99.90;;;;;;5092679;28;20086;-69
2021/07/31 03:55:48;;;;;;;10.80;9.65;;;25.30;99.90;;;;;;5093005;28;20024;-69
2021/07/31 03:58:14;;;;;;;;;;;25.30;99.90;;;;;;5074745;28;20050;-70
2021/07/31 04:00:40;;;;;;;11.60;9.27;;;25.30;99.90;;;;;;5091500;28;19904;-69
2021/07/31 04:03:10;;;;;;;13.05;10.65;;;25.30;99.90;;;;;;5074321;28;20407;-68
2021/07/31 04:05:39;;;;;;;11.82;10.77;;;25.30;99.90;;;;;;5092787;28;20026;-69
2021/07/31 04:08:05;;;;;;;10.45;9.43;;;25.40;99.90;;;;;;5074478;28;20024;-70
2021/07/31 04:10:31;;;;;;;11.73;10.10;;;25.30;99.90;;;;;;5074169;28;20024;-71
2021/07/31 04:12:57;;;;;;;11.43;10.30;;;25.40;99.90;;;;;;5092393;28;20099;-70
2021/07/31 04:15:23;;;;;;;11.35;10.20;;;25.40;99.90;;;;;;5074700;28;20055;-70
2021/07/31 04:17:48;;;;;;;11.73;10.63;;;25.40;99.90;;;;;;5074010;28;20419;-70
2021/07/31 04:20:14;;;;;;;12.57;10.38;;;25.40;99.90;;;;;;5092328;28;20044;-70
2021/07/31 04:22:40;;;;;;;17.88;10.18;;;25.40;99.90;;;;;;5074133;28;20024;-70
2021/07/31 04:25:07;;;;;;;14.35;11.45;;;25.50;99.90;;;;;;5092250;28;20020;-70
2021/07/31 04:27:33;;;;;;;11.88;10.77;;;25.50;99.90;;;;;;5093047;28;20049;-70
2021/07/31 04:30:00;;;;;;;12.95;10.38;;;25.40;99.90;;;;;;5074935;28;20054;-71
2021/07/31 04:32:26;;;;;;;10.98;9.88;;;25.40;99.90;;;;;;5094130;28;20207;-70
2021/07/31 04:34:51;;;;;;;13.50;9.93;;;25.40;99.90;;;;;;5095088;28;20024;-69
2021/07/31 04:37:17;;;;;;;14.63;10.73;;;25.40;99.90;;;;;;5078206;28;20024;-69
2021/07/31 04:39:43;;;;;;;13.52;8.68;;;25.50;99.90;;;;;;5093262;28;20032;-70
2021/07/31 04:42:09;;;;;;;15.93;10.00;;;25.50;99.90;;;;;;5092715;28;20077;-71
2021/07/31 04:44:34;;;;;;;12.25;10.13;;;25.50;99.90;;;;;;5092265;28;20020;-69
2021/07/31 04:47:00;;;;;;;14.05;10.60;;;25.50;99.90;;;;;;5092508;28;20091;-70
2021/07/31 04:49:26;;;;;;;17.42;10.70;;;25.50;99.90;;;;;;5092550;28;20028;-71
2021/07/31 04:51:51;;;;;;;11.45;10.48;;;25.60;99.90;;;;;;5074143;28;20020;-70
2021/07/31 04:54:17;;;;;;;12.30;10.02;;;25.60;99.90;;;;;;5071924;28;20032;-71
2021/07/31 04:56:43;;;;;;;15.68;9.80;;;25.60;99.90;;;;;;5070778;28;20031;-70
2021/07/31 04:59:09;;;;;;;18.05;11.30;;;25.70;99.90;;;;;;5074402;28;20028;-71
2021/07/31 05:01:35;;;;;;;14.35;9.30;;;25.70;99.90;;;;;;5093242;28;20024;-70
2021/07/31 05:04:00;;;;;;;13.18;11.93;;;25.80;99.90;;;;;;5091531;28;20498;-71
2021/07/31 05:06:26;;;;;;;18.70;14.20;;;25.80;99.90;;;;;;5091868;28;20031;-70
2021/07/31 05:08:52;;;;;;;15.27;11.75;;;25.90;99.90;;;;;;5094569;28;20024;-71
2021/07/31 05:11:21;;;;;;;16.80;10.05;;;25.90;99.90;;;;;;5073347;28;20031;-70
2021/07/31 05:13:48;;;;;;;11.20;10.15;;;25.90;99.90;;;;;;5073169;28;20024;-69
2021/07/31 05:16:15;;;;;;;15.07;10.57;;;25.90;99.90;;;;;;5091571;28;20035;-69
2021/07/31 05:18:42;;;;;;;13.48;10.65;;;25.80;99.90;;;;;;5072952;28;20031;-69
2021/07/31 05:21:08;;;;;;;15.88;11.70;;;25.90;99.90;;;;;;5073057;28;20032;-69
2021/07/31 05:23:34;;;;;;;22.45;11.82;;;25.90;99.90;;;;;;5072870;28;20397;-69
2021/07/31 05:25:59;;;;;;;22.52;18.27;;;26.00;99.90;;;;;;5073056;28;20020;-69
2021/07/31 05:28:25;;;;;;;14.93;10.95;;;26.10;99.90;;;;;;5090915;28;20466;-69
2021/07/31 05:30:51;;;;;;;16.40;9.38;;;26.20;99.90;;;;;;5090927;28;20031;-69
2021/07/31 05:33:17;;;;;;;13.55;9.75;;;26.20;99.90;;;;;;5072891;28;20028;-69
2021/07/31 05:35:42;;;;;;;13.07;10.07;;;26.30;99.90;;;;;;5072745;28;20504;-70
2021/07/31 05:38:08;;;;;;;14.02;9.77;;;26.30;99.90;;;;;;5092305;28;20421;-70
2021/07/31 05:40:34;;;;;;;10.93;9.63;;;26.30;99.90;;;;;;5091377;28;20028;-70
2021/07/31 05:42:59;;;;;;;15.18;10.93;;;26.30;99.90;;;;;;5090762;28;20462;-71
2021/07/31 05:45:26;;;;;;;15.73;9.60;;;26.30;99.90;;;;;;5090865;28;20509;-69
2021/07/31 05:47:52;;;;;;;12.90;11.65;;;26.40;99.90;;;;;;5072576;28;20120;-69
2021/07/31 05:50:18;;;;;;;13.27;10.45;;;26.40;99.90;;;;;;5091024;28;20442;-70
2021/07/31 05:52:43;;;;;;;11.70;9.77;;;26.50;99.90;;;;;;5072542;28;20032;-70
2021/07/31 05:55:09;;;;;;;19.55;9.02;;;26.50;99.90;;;;;;5072508;28;20115;-70
2021/07/31 05:57:35;;;;;;;9.95;9.02;;;26.70;99.90;;;;;;5072833;28;20024;-70
2021/07/31 06:00:02;;;;;;;17.13;9.82;;;26.80;99.90;;;;;;5090758;28;20024;-69
2021/07/31 06:02:28;;;;;;;13.23;10.23;;;26.90;99.90;;;;;;5090759;28;20024;-70
2021/07/31 06:04:54;;;;;;;10.95;9.15;;;27.00;99.90;;;;;;5091288;28;20538;-71
2021/07/31 06:07:20;;;;;;;10.10;8.77;;;27.20;99.90;;;;;;5091071;28;20021;-69
2021/07/31 06:09:56;;;;;;;9.82;8.55;;;27.30;99.90;;;;;;5090557;28;20022;-69
2021/07/31 06:12:22;;;;;;;13.82;10.20;;;27.50;99.90;;;;;;5072537;28;20024;-70
2021/07/31 06:14:48;;;;;;;10.50;9.30;;;27.80;99.90;;;;;;5090731;28;20027;-70
2021/07/31 06:17:14;;;;;;;9.23;8.20;;;27.90;99.90;;;;;;5090679;28;20043;-70
2021/07/31 06:19:40;;;;;;;11.98;9.30;;;28.00;99.90;;;;;;5090504;28;20073;-70
2021/07/31 06:22:07;;;;;;;13.07;8.73;;;28.10;99.90;;;;;;5072970;28;20028;-72
2021/07/31 06:24:32;;;;;;;10.80;8.90;;;28.20;99.90;;;;;;5076213;28;20031;-69
2021/07/31 06:26:58;;;;;;;11.98;9.52;;;28.20;99.90;;;;;;5095066;28;20020;-70
2021/07/31 06:29:24;;;;;;;10.88;8.63;;;28.20;99.90;;;;;;5095314;28;20537;-70
2021/07/31 06:31:51;;;;;;;11.05;8.55;;;28.20;99.90;;;;;;5094759;28;20020;-70
2021/07/31 06:34:17;;;;;;;10.55;7.45;;;28.30;99.90;;;;;;5094201;28;20019;-69
2021/07/31 06:36:43;;;;;;;13.48;8.50;;;28.30;99.90;;;;;;5076475;28;20509;-71
2021/07/31 06:39:10;;;;;;;11.85;8.48;;;28.30;99.90;;;;;;5093823;28;20478;-70
2021/07/31 06:41:36;;;;;;;12.25;8.77;;;28.40;99.90;;;;;;5093955;28;20032;-71
2021/07/31 06:44:02;;;;;;;13.30;9.40;;;28.50;99.90;;;;;;5094163;28;20050;-71
2021/07/31 06:46:29;;;;;;;13.10;9.75;;;28.60;99.90;;;;;;5094051;28;20484;-71
2021/07/31 06:48:56;;;;;;;10.05;8.40;;;28.70;99.90;;;;;;5093774;28;20455;-71
2021/07/31 06:51:23;;;;;;;10.07;9.00;;;28.80;99.90;;;;;;5094048;28;20024;-69
2021/07/31 06:53:50;;;;;;;9.13;7.82;;;28.80;99.90;;;;;;5075852;28;20020;-71
2021/07/31 06:56:16;;;;;;;10.52;9.63;;;28.80;99.90;;;;;;5073302;28;20114;-69
2021/07/31 06:58:41;;;;;;;12.30;8.95;;;28.70;99.90;;;;;;5075430;28;20105;-70
2021/07/31 07:01:12;;;;;;;10.35;9.27;;;28.90;99.90;;;;;;5093818;28;20070;-71
2021/07/31 07:03:39;;;;;;;9.97;9.03;;;29.10;99.90;;;;;;5075917;28;20032;-70
2021/07/31 07:06:10;;;;;;;9.48;8.70;;;29.30;99.90;;;;;;5075460;28;20258;-69
2021/07/31 07:08:36;;;;;;;8.40;7.50;;;29.40;99.90;;;;;;5093549;28;20024;-70
2021/07/31 07:11:03;;;;;;;11.10;8.43;;;29.50;99.90;;;;;;5075578;28;20031;-70
2021/07/31 07:13:29;;;;;;;8.88;8.02;;;29.60;99.90;;;;;;5093731;28;20539;-69
2021/07/31 07:15:55;;;;;;;10.38;8.05;;;29.40;99.90;;;;;;5075808;28;20185;-69
2021/07/31 07:18:21;;;;;;;10.07;8.02;;;29.30;99.90;;;;;;5075179;28;20053;-71
2021/07/31 07:20:48;;;;;;;10.90;9.05;;;29.30;99.90;;;;;;5093370;28;20110;-71
2021/07/31 07:23:15;;;;;;;14.85;9.57;;;29.40;99.90;;;;;;5093322;28;20110;-71
2021/07/31 07:25:42;;;;;;;12.75;7.95;;;29.60;99.90;;;;;;5075420;28;20022;-71
2021/07/31 07:28:09;;;;;;;8.88;8.07;;;29.70;99.90;;;;;;5093111;28;20065;-71
2021/07/31 07:30:34;;;;;;;11.98;7.82;;;29.90;99.90;;;;;;5075103;28;20100;-70
2021/07/31 07:33:02;;;;;;;12.77;7.50;;;30.10;99.90;;;;;;5074965;28;20158;-70
2021/07/31 07:35:29;;;;;;;7.97;7.25;;;30.30;99.90;;;;;;5073574;28;20028;-70
2021/07/31 07:37:54;;;;;;;13.65;7.88;;;30.50;99.90;;;;;;5092978;28;20016;-69
2021/07/31 07:40:20;;;;;;;7.78;7.10;;;30.70;99.90;;;;;;5093205;28;20051;-69
2021/07/31 07:42:46;;;;;;;11.98;6.72;;;30.90;99.90;;;;;;5093060;28;20391;-70
2021/07/31 07:45:12;;;;;;;8.05;7.25;;;31.20;99.90;;;;;;5093103;28;20478;-70
2021/07/31 07:47:37;;;;;;;9.90;6.95;;;31.50;99.90;;;;;;5074912;28;20020;-70
2021/07/31 07:50:05;;;;;;;11.55;6.65;;;31.70;99.90;;;;;;5093412;28;20077;-70
2021/07/31 07:52:31;;;;;;;10.07;6.70;;;31.90;99.90;;;;;;5093174;28;20024;-71
2021/07/31 07:54:56;;;;;;;8.27;6.68;;;32.00;99.90;;;;;;5074738;28;20024;-71
2021/07/31 07:57:22;;;;;;;10.73;7.40;;;32.00;99.90;;;;;;5093121;28;20046;-71
2021/07/31 07:59:48;;;;;;;8.98;8.10;;;32.10;99.90;;;;;;5074837;28;20024;-71
2021/07/31 08:02:17;;;;;;;11.98;8.82;;;32.20;99.90;;;;;;5092814;28;20023;-69
2021/07/31 08:04:44;;;;;;;11.75;8.43;;;32.40;99.90;;;;;;5092755;28;20044;-71
2021/07/31 08:07:11;;;;;;;12.20;8.35;;;32.60;99.90;;;;;;5092533;28;20020;-70
2021/07/31 08:09:38;;;;;;;8.48;7.68;;;32.60;99.90;;;;;;5092703;28;20024;-70
2021/07/31 08:12:05;;;;;;;14.10;8.68;;;32.40;99.90;;;;;;5074576;28;20035;-71
2021/07/31 08:14:32;;;;;;;19.67;7.88;;;32.30;99.90;;;;;;5092484;28;20487;-70
2021/07/31 08:16:57;;;;;;;10.65;7.90;;;32.00;99.90;;;;;;5074203;28;20047;-73
2021/07/31 08:19:24;;;;;;;14.27;8.80;;;31.50;99.90;;;;;;5091953;28;20036;-72
2021/07/31 08:21:49;;;;;;;8.45;7.30;;;30.90;99.90;;;;;;5092214;28;20405;-73
2021/07/31 08:24:18;;;;;;;9.32;6.70;;;30.00;99.90;;;;;;5092394;28;20107;-72
2021/07/31 08:26:45;;;;;;;8.15;7.22;;;29.50;99.90;;;;;;5074083;28;20525;-71
2021/07/31 08:29:11;;;;;;;8.48;7.60;;;29.30;99.90;;;;;;5095406;28;20020;-71
2021/07/31 08:31:43;;;;;;;7.03;6.47;;;29.20;99.90;;;;;;5096493;28;20034;-71
2021/07/31 08:34:10;;;;;;;8.30;7.53;;;29.20;99.90;;;;;;5080204;28;20342;-71
2021/07/31 08:36:37;;;;;;;8.68;7.80;;;29.00;99.90;;;;;;5077818;28;20083;-71
2021/07/31 08:39:09;;;;;;;8.93;8.13;;;28.90;99.90;;;;;;5097941;28;20024;-71
2021/07/31 08:41:34;;;;;;;11.43;6.85;;;28.80;99.90;;;;;;5074321;28;20035;-72
2021/07/31 08:44:03;;;;;;;9.02;8.15;;;28.80;99.90;;;;;;5092521;28;20024;-72
2021/07/31 08:46:30;;;;;;;14.90;9.15;;;28.80;99.90;;;;;;5091653;28;20031;-71
2021/07/31 08:48:56;;;;;;;8.63;7.82;;;29.00;99.90;;;;;;5073341;28;20110;-71
2021/07/31 08:51:25;;;;;;;9.45;8.43;;;29.00;99.90;;;;;;5073271;28;20069;-73
2021/07/31 08:53:54;;;;;;;13.52;8.48;;;28.90;99.90;;;;;;5091884;28;20031;-71
2021/07/31 08:56:19;;;;;;;9.57;8.40;;;29.00;99.90;;;;;;5071000;28;20028;-71
2021/07/31 08:58:45;;;;;;;9.65;8.65;;;29.10;99.90;;;;;;5073073;28;20031;-71
2021/07/31 09:01:11;;;;;;;10.63;8.38;;;29.20;99.90;;;;;;5073134;28;20028;-70
2021/07/31 09:03:47;;;;;;;14.93;9.30;;;29.20;99.90;;;;;;5091549;28;20103;-72
2021/07/31 09:06:32;;;;;;;13.25;7.78;;;29.20;99.90;;;;;;5073182;28;20044;-71
2021/07/31 09:08:59;;;;;;;10.25;8.52;;;29.00;99.90;;;;;;5073080;28;20024;-73
2021/07/31 09:11:27;;;;;;;9.38;8.57;;;29.00;99.90;;;;;;5073434;28;20020;-72
2021/07/31 09:14:13;;;;;;;11.13;8.32;;;29.00;99.90;;;;;;5073435;28;20028;-72
2021/07/31 09:16:41;;;;;;;9.50;8.40;;;29.20;99.90;;;;;;5073101;28;20060;-70
2021/07/31 09:19:08;;;;;;;14.18;7.97;;;29.20;99.90;;;;;;5072962;28;20063;-71
2021/07/31 09:21:35;;;;;;;10.93;7.97;;;29.30;99.90;;;;;;5091340;28;20024;-71
2021/07/31 09:24:01;;;;;;;12.07;8.18;;;29.40;99.90;;;;;;5091793;28;20099;-72
2021/07/31 09:26:38;;;;;;;13.60;9.48;;;29.20;99.90;;;;;;5073600;28;20024;-72
2021/07/31 09:29:11;;;;;;;10.38;9.13;;;29.10;99.90;;;;;;5073254;28;20044;-71
2021/07/31 09:32:10;;;;;;;10.35;8.20;;;28.90;99.90;;;;;;5073453;28;20021;-72
2021/07/31 09:34:46;;;;;;;10.07;8.52;;;28.80;99.90;;;;;;5018962;28;20035;-70
2021/07/31 09:37:25;;;;;;;9.27;8.48;;;28.90;99.90;;;;;;5073398;28;20024;-74
2021/07/31 09:39:58;;;;;;;15.40;9.48;;;28.90;99.90;;;;;;5091460;28;20043;-71
2021/07/31 09:42:27;;;;;;;8.73;7.93;;;29.00;99.90;;;;;;5091349;28;20426;-71
2021/07/31 09:44:53;;;;;;;11.98;9.48;;;29.00;99.90;;;;;;5073324;28;20094;-71
2021/07/31 09:47:19;;;;;;;9.55;8.40;;;28.90;99.90;;;;;;5073197;28;20024;-71
2021/07/31 09:49:46;;;;;;;13.70;8.88;;;28.90;99.90;;;;;;5091067;28;20141;-72
2021/07/31 09:52:17;;;;;;;12.25;8.43;;;29.00;99.90;;;;;;5072950;28;20434;-72
2021/07/31 09:54:43;;;;;;;9.30;8.38;;;28.90;99.90;;;;;;5090895;28;20022;-72
2021/07/31 09:57:12;;;;;;;13.52;8.77;;;28.90;99.90;;;;;;5072746;28;20028;-71
2021/07/31 09:59:46;;;;;;;10.88;8.98;;;28.90;99.90;;;;;;5073235;28;20382;-72
2021/07/31 10:02:20;;;;;;;15.77;8.85;;;29.00;99.90;;;;;;5072736;28;20024;-71
2021/07/31 10:04:47;;;;;;;11.07;8.73;;;29.30;99.90;;;;;;5091139;28;20035;-71
2021/07/31 10:07:14;;;;;;;9.68;8.73;;;29.40;99.90;;;;;;5090752;28;20020;-71
2021/07/31 10:09:42;;;;;;;13.85;8.85;;;29.60;99.90;;;;;;5090875;28;20028;-71
2021/07/31 10:12:11;;;;;;;9.63;7.30;;;29.60;99.90;;;;;;5090932;28;20024;-72
2021/07/31 10:14:38;;;;;;;17.30;9.57;;;29.60;99.90;;;;;;5091649;28;20073;-72
2021/07/31 10:17:04;;;;;;;9.48;8.57;;;29.60;99.90;;;;;;5091245;28;20063;-73
2021/07/31 10:19:50;;;;;;;12.73;9.18;;;29.50;99.90;;;;;;5090926;28;20064;-73
2021/07/31 10:22:16;;;;;;;9.98;8.77;;;29.50;99.90;;;;;;5071829;28;20032;-71
2021/07/31 10:24:54;;;;;;;10.15;8.60;;;29.60;99.90;;;;;;5072264;28;20039;-70
2021/07/31 10:27:21;;;;;;;12.70;9.15;;;29.80;99.90;;;;;;5072674;28;20028;-73
2021/07/31 10:29:48;;;;;;;14.18;10.18;;;30.00;99.90;;;;;;5072579;28;20020;-72
2021/07/31 10:32:35;;;;;;;17.65;9.82;;;29.90;99.90;;;;;;5072299;28;20492;-72
2021/07/31 10:35:33;;;;;;;13.35;9.73;;;29.70;99.90;;;;;;5072738;28;20055;-72
2021/07/31 10:38:10;;;;;;;12.98;10.27;;;29.50;99.90;;;;;;5090694;28;20432;-70
2021/07/31 10:40:42;;;;;;;18.10;9.50;;;29.60;99.90;;;;;;5072375;28;20033;-72
2021/07/31 10:43:09;;;;;;;12.55;9.95;;;29.80;99.90;;;;;;5090652;28;20334;-73
2021/07/31 10:45:35;;;;;;;12.88;9.68;;;29.80;99.90;;;;;;5072180;28;20107;-71
2021/07/31 10:48:24;;;;;;;14.95;11.27;;;29.60;99.90;;;;;;5090503;28;20035;-73
2021/07/31 10:50:51;;;;;;;15.68;10.75;;;29.60;99.90;;;;;;5073058;28;20117;-72
2021/07/31 10:53:19;;;;;;;12.13;10.85;;;29.80;99.90;;;;;;5090878;28;20020;-72
2021/07/31 10:55:45;;;;;;;13.95;9.93;;;30.00;99.90;;;;;;5090147;28;20016;-72
2021/07/31 10:58:12;;;;;;;12.25;9.85;;;30.00;99.90;;;;;;5087719;28;20047;-72
2021/07/31 11:00:39;;;;;;;13.15;10.05;;;29.90;99.90;;;;;;5090207;28;20250;-74
2021/07/31 11:03:25;;;;;;;12.93;9.70;;;29.70;99.90;;;;;;5090124;28;20031;-72
2021/07/31 11:06:06;;;;;;;14.23;10.30;;;29.60;99.90;;;;;;5090186;28;20017;-74
2021/07/31 11:08:54;;;;;;;17.98;11.30;;;29.60;99.90;;;;;;5072662;28;20371;-71
2021/07/31 11:11:20;;;;;;;12.90;11.40;;;29.50;99.90;;;;;;5075884;28;20024;-71
2021/07/31 11:13:46;;;;;;;16.25;10.40;;;29.50;99.90;;;;;;5093775;28;20085;-71
2021/07/31 11:16:15;;;;;;;12.80;9.20;;;29.60;99.90;;;;;;5094244;28;20039;-71
2021/07/31 11:18:47;;;;;;;11.32;10.13;;;29.50;99.90;;;;;;5093674;28;20517;-74
2021/07/31 11:21:41;;;;;;;13.63;10.73;;;29.40;99.90;;;;;;5093845;28;20453;-72
2021/07/31 11:24:09;;;;;;;21.17;12.13;;;29.40;99.90;;;;;;5090541;28;20063;-74
2021/07/31 11:26:44;;;;;;;16.13;10.90;;;29.20;99.90;;;;;;5075524;28;20081;-73
2021/07/31 11:29:14;;;;;;;14.35;10.60;;;29.20;99.90;;;;;;5075387;28;20028;-70
2021/07/31 11:31:41;;;;;;;11.00;9.90;;;29.20;99.90;;;;;;5075334;28;20020;-71
2021/07/31 11:34:09;;;;;;;11.13;9.85;;;29.20;99.90;;;;;;5075192;28;20107;-71
2021/07/31 11:36:37;;;;;;;12.65;11.40;;;29.30;99.90;;;;;;5075958;28;20111;-71
2021/07/31 11:39:05;;;;;;;10.80;9.90;;;29.40;99.90;;;;;;5093501;28;20028;-73
2021/07/31 11:41:41;;;;;;;18.83;11.75;;;29.50;99.90;;;;;;5075409;28;20393;-72
2021/07/31 11:44:12;;;;;;;15.60;12.15;;;29.50;99.90;;;;;;5093387;28;20032;-70
2021/07/31 11:46:37;;;;;;;14.20;11.13;;;29.50;99.90;;;;;;5093416;28;20023;-71
2021/07/31 11:49:07;;;;;;;15.13;10.73;;;29.60;99.90;;;;;;5092899;28;20016;-71
2021/07/31 11:51:33;;;;;;;12.95;10.32;;;29.60;99.90;;;;;;5092999;28;20466;-69
2021/07/31 11:54:08;;;;;;;12.50;10.88;;;29.60;99.90;;;;;;5074858;28;20028;-72
2021/07/31 11:56:35;;;;;;;13.88;10.77;;;29.70;99.90;;;;;;5074359;28;20036;-73
2021/07/31 11:59:02;;;;;;;15.32;10.05;;;29.80;99.90;;;;;;5074645;28;20567;-72
2021/07/31 12:01:28;;;;;;;11.55;10.43;;;29.70;99.90;;;;;;5074546;28;20028;-72
2021/07/31 12:03:55;;;;;;;15.40;10.18;;;29.60;99.90;;;;;;5092943;28;20126;-70
2021/07/31 12:06:44;;;;;;;10.82;9.90;;;29.60;99.90;;;;;;5092792;28;20024;-72
2021/07/31 12:09:25;;;;;;;12.77;9.93;;;29.60;99.90;;;;;;5074453;28;20107;-71
2021/07/31 12:11:53;;;;;;;12.02;10.85;;;29.60;99.90;;;;;;5074148;28;20035;-71
2021/07/31 12:14:30;;;;;;;14.30;10.70;;;29.60;99.90;;;;;;5074263;28;20024;-73
2021/07/31 12:17:14;;;;;;;10.95;9.93;;;29.50;99.90;;;;;;5092426;28;20025;-70
2021/07/31 12:19:45;;;;;;;14.25;10.25;;;29.50;99.90;;;;;;5092198;28;20484;-72
2021/07/31 12:22:13;;;;;;;13.02;10.90;;;29.50;99.90;;;;;;5073550;28;20028;-72
2021/07/31 12:24:40;;;;;;;11.68;10.55;;;29.50;99.90;;;;;;5092541;28;20124;-72
2021/07/31 12:27:06;;;;;;;13.38;12.02;;;29.40;99.90;;;;;;5073883;28;20612;-70
2021/07/31 12:29:40;;;;;;;15.50;10.85;;;29.40;99.90;;;;;;5073751;28;20393;-71
2021/07/31 12:32:44;;;;;;;14.77;10.20;;;29.40;99.90;;;;;;5074069;28;20023;-73
2021/07/31 12:35:28;;;;;;;12.65;11.35;;;29.40;99.90;;;;;;5024146;28;20524;-71
2021/07/31 12:37:54;;;;;;;17.83;10.55;;;29.30;99.90;;;;;;5074945;28;20028;-72